Latest Weather Observations for Latrobe Valley

IDV60801

Issued at 9:35 am EST Wednesday 1 October 2014 (issued every 30 minutes, with the page automatically refreshed every 10 minutes)

About weather observations | Map of weather stations | Latest weather observations for VIC | Other Formats
Station Details ID: 085280 Name: LATROBE VALLEY AIRPORT Lat: -38.21 Lon: 146.47 Height: 55.7 m
Data from the previous 72 hours. | See also: Recent months at Latrobe Valley
Date/Time
EST
Temp
°C
App
Temp
°C
Dew
Point
Rel
Hum
%
Delta-T
°C
Wind Press
QNH
hPa
Press
MSL
hPa
Rain
since 9 am
mm
Dir
 
Spd
km/h
Gust
km/h
Spd
kts
Gust
kts
01/09:30am 11.0 6.2 8.9 87 1.0 W 24 33 13 18 1021.7 1021.7 0.2
01/09:27am 10.4 5.5 8.5 88 0.9 W 24 33 13 18 1021.7 1021.7 0.2
01/09:12am 9.4 3.5 7.7 89 0.8 WNW 28 43 15 23 1021.7 1021.7 0.2
01/09:00am 10.6 5.2 8.0 84 1.3 WNW 26 35 14 19 1021.5 1021.5 7.2
01/08:30am 9.6 4.6 8.0 90 0.8 W 24 32 13 17 1021.1 1021.1 7.2
01/08:00am 8.8 3.5 6.9 88 0.9 W 24 35 13 19 1020.5 1020.5 6.8
01/07:30am 8.1 3.5 6.7 91 0.6 W 20 32 11 17 1020.0 1020.0 6.6
01/07:00am 7.5 2.2 6.8 95 0.3 WNW 24 32 13 17 1019.3 1019.3 6.6
01/06:30am 6.5 1.8 6.1 97 0.2 WNW 20 30 11 16 1018.7 1018.7 6.6
01/06:00am 6.6 0.7 5.9 95 0.3 W 26 37 14 20 1018.1 1018.1 6.6
01/05:30am 6.3 1.7 5.4 94 0.4 W 19 26 10 14 1017.7 1017.7 6.6
01/05:00am 6.8 0.9 5.7 93 0.5 WNW 26 35 14 19 1016.9 1016.9 6.6
01/04:30am 6.4 0.1 5.8 96 0.3 W 28 37 15 20 1016.1 1016.1 6.6
01/04:00am 6.3 0.4 5.9 97 0.2 W 26 33 14 18 1015.8 1015.8 6.6
01/03:30am 6.5 1.0 6.1 97 0.2 W 24 35 13 19 1015.5 1015.5 6.6
01/03:00am 6.5 0.6 5.9 96 0.3 W 26 37 14 20 1015.0 1015.0 6.0
01/02:30am 6.4 0.3 5.0 91 0.6 WNW 26 37 14 20 1014.8 1014.8 5.8
01/02:00am 6.1 -0.8 4.7 91 0.6 WNW 30 41 16 22 1014.1 1014.1 5.8
01/01:30am 6.5 0.9 5.6 94 0.4 WNW 24 33 13 18 1014.0 1014.0 5.8
01/01:00am 6.3 1.1 5.6 95 0.3 W 22 30 12 16 1013.8 1013.8 5.8
01/12:30am 6.9 0.5 5.1 88 0.8 W 28 43 15 23 1013.7 1013.7 5.6
01/12:00am 6.8 -0.7 4.6 86 1.0 WNW 33 43 18 23 1012.9 1013.0 5.6
 
Date/Time
EST
Temp
°C
App
Temp
°C
Dew
Point
Rel
Hum
%
Delta-T
°C
Wind Press
QNH
hPa
Press
MSL
hPa
Rain
since 9 am
mm
Dir
 
Spd
km/h
Gust
km/h
Spd
kts
Gust
kts
30/11:30pm 7.4 1.2 6.0 91 0.6 W 28 39 15 21 1012.6 1012.7 5.6
30/11:27pm 7.4 1.6 6.2 92 0.5 W 26 39 14 21 1012.6 1012.7 5.6
30/11:12pm 7.5 1.4 6.6 94 0.4 SW 28 37 15 20 1012.6 1012.7 5.4
30/11:00pm 8.5 3.0 5.8 83 1.2 W 24 33 13 18 1012.1 1012.2 5.0
30/10:30pm 8.0 2.8 5.3 83 1.2 WNW 22 30 12 16 1011.7 1011.8 4.8
30/10:00pm 8.2 2.6 5.5 83 1.2 W 24 32 13 17 1011.8 1011.9 4.8
30/09:30pm 8.2 3.1 6.0 86 1.0 W 22 30 12 16 1011.4 1011.5 4.8
30/09:00pm 8.6 2.4 6.2 85 1.1 WNW 28 43 15 23 1010.8 1010.9 4.8
30/08:30pm 8.2 2.2 7.0 92 0.6 WNW 28 37 15 20 1010.7 1010.8 4.8
30/08:00pm 8.5 1.6 7.3 92 0.6 W 33 46 18 25 1010.1 1010.2 4.8
30/07:33pm 8.4 1.7 7.3 93 0.5 WNW 32 50 17 27 1009.6 1009.7 4.8
30/07:30pm 8.3 1.6 7.4 94 0.4 WNW 32 43 17 23 1009.5 1009.6 4.8
30/07:00pm 8.3 1.6 7.5 95 0.4 WNW 32 43 17 23 1009.3 1009.4 4.8
30/06:47pm 8.2 2.4 7.9 98 0.1 WNW 28 35 15 19 1009.1 1009.2 4.8
30/06:32pm 8.2 1.6 7.8 97 0.2 WNW 32 41 17 22 1009.3 1009.4 4.8
30/06:30pm 8.2 1.6 7.8 97 0.2 WNW 32 41 17 22 1009.4 1009.5 4.6
30/06:28pm 8.2 2.0 7.9 98 0.1 WNW 30 41 16 22 1009.4 1009.5 4.6
30/06:00pm 8.4 2.2 7.8 96 0.3 WNW 30 39 16 21 1009.6 1009.7 3.8
30/05:59pm 8.3 2.1 7.7 96 0.3 WNW 30 39 16 21 1009.4 1009.5 3.8
30/05:31pm 8.9 -0.2 7.0 88 0.9 W 44 63 24 34 1008.7 1008.8 2.8
30/05:30pm 8.9 -0.2 7.0 88 0.9 W 44 63 24 34 1008.7 1008.8 2.8
30/05:02pm 10.2 0.5 9.0 92 0.6 WSW 50 69 27 37 1007.3 1007.4 1.8
30/05:00pm 10.3 0.5 8.7 90 0.8 WSW 50 69 27 37 1007.0 1007.0 1.8
30/04:57pm 10.5 1.5 8.8 89 0.8 WSW 46 67 25 36 1006.6 1006.6 1.8
30/04:50pm 10.9 3.4 9.3 90 0.8 WSW 39 44 21 24 1005.6 1005.6 1.8
30/04:42pm 11.3 0.4 9.7 90 0.8 WSW 57 76 31 41 1004.9 1004.9 1.8
30/04:38pm 11.7 0.9 9.8 88 1.0 SW 57 72 31 39 1004.6 1004.6 1.8
30/04:30pm 13.1 7.4 11.7 91 0.7 W 33 56 18 30 1004.3 1004.3 1.8
30/04:28pm 13.1 7.6 12.0 93 0.6 W 32 50 17 27 1004.3 1004.3 1.8
30/04:27pm 13.1 7.6 12.0 93 0.6 W 32 41 17 22 1004.2 1004.2 1.8
30/04:10pm 12.9 6.0 11.6 92 0.7 W 39 57 21 31 1003.6 1003.6 1.4
30/04:08pm 12.9 5.1 11.3 90 0.8 W 43 54 23 29 1003.5 1003.5 1.0
30/04:04pm 13.3 1.1 10.3 82 1.6 W 65 87 35 47 1003.2 1003.2 0.4
30/04:01pm 17.2 5.6 9.9 62 3.9 W 61 87 33 47 1002.5 1002.5 0.0
30/04:00pm 19.9 12.6 8.6 48 5.9 NW 37 87 20 47 1001.7 1001.7 0.0
30/03:30pm 21.1 13.8 7.3 41 7.1 NW 35 59 19 32 1000.6 1000.6 0.0
30/03:00pm 21.1 13.2 7.7 42 7.0 WNW 39 63 21 34 1001.2 1001.2 0.0
30/02:31pm 21.5 13.7 6.6 38 7.6 NW 37 57 20 31 1001.2 1001.2 0.0
30/02:30pm 21.3 13.4 6.4 38 7.5 NW 37 54 20 29 1001.2 1001.2 0.0
30/02:05pm 22.3 13.6 7.7 39 7.6 WNW 43 61 23 33 1001.8 1001.8 0.0
30/02:00pm 22.4 13.5 7.0 37 8.0 NW 43 57 23 31 1001.9 1001.9 0.0
30/01:38pm 21.8 14.1 7.2 39 7.5 NW 37 63 20 34 1002.4 1002.4 0.0
30/01:30pm 22.2 14.2 7.6 39 7.6 WNW 39 54 21 29 1002.6 1002.6 0.0
30/01:00pm 22.3 14.7 7.7 39 7.7 WNW 37 56 20 30 1003.1 1003.1 0.0
30/12:33pm 21.8 14.6 9.0 44 6.8 NW 37 56 20 30 1003.5 1003.5 0.0
30/12:30pm 21.3 13.6 8.6 44 6.7 NW 39 56 21 30 1003.5 1003.5 0.0
30/12:02pm 22.4 16.8 8.9 42 7.2 NW 28 50 15 27 1004.1 1004.1 0.0
30/12:00pm 21.9 16.3 8.8 43 7.0 NW 28 41 15 22 1004.1 1004.1 0.0
30/11:30am 22.1 16.6 9.3 44 6.9 NW 28 39 15 21 1004.9 1004.9 0.0
30/11:03am 20.9 14.7 9.2 47 6.2 WNW 32 50 17 27 1005.9 1005.9 0.0
30/11:00am 20.8 14.3 8.8 46 6.4 WNW 33 50 18 27 1006.0 1006.0 0.0
30/10:30am 20.5 14.2 8.8 47 6.2 WNW 32 44 17 24 1006.7 1006.7 0.0
30/10:01am 19.8 14.2 8.8 49 5.8 WNW 28 50 15 27 1007.2 1007.2 0.0
30/10:00am 19.8 14.0 7.9 46 6.2 WNW 28 44 15 24 1007.3 1007.4 0.0
30/09:30am 19.4 15.7 10.1 55 5.0 WNW 20 32 11 17 1007.6 1007.7 0.0
30/09:00am 17.9 13.8 11.5 66 3.5 W 24 32 13 17 1008.2 1008.3 0.2
30/08:30am 14.3 11.4 11.1 81 1.7 W 17 22 9 12 1008.8 1008.9 0.2
30/08:00am 13.0 13.6 13.0 100 0.0 SW 2 9 1 5 1008.7 1008.8 0.2
30/07:30am 10.6 9.7 10.6 100 0.0 WSW 6 7 3 4 1008.9 1009.0 0.2
30/07:00am 8.2 6.1 8.2 100 0.0 SW 9 9 5 5 1009.0 1009.1 0.2
30/06:30am 6.3 5.1 6.3 100 0.0 S 2 6 1 3 1008.7 1008.8 0.2
30/06:00am 5.3 4.2 5.3 100 0.0 CALM 0 0 0 0 1008.4 1008.5 0.2
30/05:30am 6.1 5.2 6.1 100 0.0 CALM 0 0 0 0 1008.5 1008.6 0.2
30/05:00am 6.1 4.8 6.1 100 0.0 WNW 2 7 1 4 1008.6 1008.7 0.2
30/04:30am 4.9 3.0 4.9 100 0.0 NNW 4 7 2 4 1008.4 1008.5 0.2
30/04:00am 5.1 4.0 5.0 99 0.0 CALM 0 0 0 0 1008.5 1008.6 0.2
30/03:30am 6.5 4.4 6.5 100 0.0 S 7 9 4 5 1008.8 1008.9 0.2
30/03:00am 6.8 5.3 6.8 100 0.0 NNE 4 6 2 3 1009.1 1009.2 0.2
30/02:58am 6.7 4.8 6.7 100 0.0 NNE 6 6 3 3 1009.1 1009.2 0.2
30/02:40am 5.8 3.7 5.8 100 0.0 NNE 6 7 3 4 1009.4 1009.5 0.2
30/02:30am 5.6 4.6 5.5 99 0.0 CALM 0 2 0 1 1009.6 1009.7 0.2
30/02:00am 6.2 4.5 6.1 99 0.0 ESE 4 9 2 5 1010.1 1010.2 0.2
30/01:30am 6.9 6.2 6.8 99 0.0 CALM 0 0 0 0 1010.7 1010.8 0.2
30/01:00am 8.2 7.8 8.2 100 0.0 CALM 0 0 0 0 1011.2 1011.3 0.2
30/12:30am 7.7 7.1 7.6 99 0.0 CALM 0 2 0 1 1011.5 1011.6 0.2
30/12:00am 8.1 6.9 8.0 99 0.0 NNW 4 9 2 5 1011.7 1011.8 0.2
 
Date/Time
EST
Temp
°C
App
Temp
°C
Dew
Point
Rel
Hum
%
Delta-T
°C
Wind Press
QNH
hPa
Press
MSL
hPa
Rain
since 9 am
mm
Dir
 
Spd
km/h
Gust
km/h
Spd
kts
Gust
kts
29/11:30pm 8.4 7.6 8.0 97 0.2 NW 2 7 1 4 1012.1 1012.2 0.2
29/11:00pm 8.7 7.7 7.5 92 0.6 WNW 2 7 1 4 1012.3 1012.4 0.2
29/10:30pm 11.3 10.0 9.2 87 1.1 SE 6 7 3 4 1012.4 1012.5 0.2
29/10:00pm 11.6 10.2 9.5 87 1.1 ESE 7 11 4 6 1012.5 1012.6 0.2
29/09:30pm 11.9 10.2 9.8 87 1.1 ESE 9 15 5 8 1012.5 1012.6 0.2
29/09:00pm 12.1 10.1 10.2 88 1.0 E 11 17 6 9 1012.7 1012.8 0.2
29/08:30pm 12.6 11.4 10.3 86 1.2 E 7 13 4 7 1013.0 1013.1 0.2
29/08:00pm 12.9 10.6 10.3 84 1.3 ENE 13 20 7 11 1012.8 1012.9 0.2
29/07:30pm 13.7 10.7 10.7 82 1.6 NE 17 24 9 13 1012.3 1012.4 0.2
29/07:00pm 15.8 15.6 9.2 65 3.4 CALM 0 9 0 5 1011.7 1011.8 0.2
29/06:30pm 16.9 15.1 9.3 61 4.0 W 9 13 5 7 1011.2 1011.3 0.2
29/06:00pm 20.1 19.0 9.9 52 5.5 WSW 6 9 3 5 1010.7 1010.8 0.2
29/05:30pm 20.7 19.1 10.2 51 5.7 SW 9 13 5 7 1010.4 1010.5 0.2
29/05:00pm 20.9 18.3 10.7 52 5.6 WSW 15 20 8 11 1010.2 1010.3 0.2
29/04:30pm 21.4 19.3 11.1 52 5.7 W 13 19 7 10 1010.0 1010.1 0.2
29/04:00pm 21.3 19.0 11.6 54 5.4 W 15 24 8 13 1010.1 1010.2 0.2
29/03:30pm 21.4 18.5 10.9 51 5.8 WSW 17 19 9 10 1010.3 1010.4 0.2
29/03:00pm 20.9 17.5 11.3 54 5.3 W 20 30 11 16 1010.2 1010.3 0.2
29/02:30pm 20.4 16.0 9.0 48 6.0 W 22 32 12 17 1010.2 1010.3 0.2
29/02:00pm 20.6 16.2 10.4 52 5.6 WSW 24 35 13 19 1010.6 1010.7 0.2
29/01:30pm 19.8 14.9 10.0 53 5.3 WSW 26 37 14 20 1011.1 1011.2 0.2
29/01:00pm 19.7 15.6 10.1 54 5.2 WSW 22 32 12 17 1011.5 1011.6 0.2
29/12:30pm 19.5 14.6 10.0 54 5.1 WSW 26 35 14 19 1011.6 1011.7 0.2
29/12:00pm 19.4 15.0 10.4 56 4.9 W 24 35 13 19 1012.4 1012.5 0.2
29/11:30am 18.7 14.4 10.8 60 4.3 W 24 35 13 19 1012.8 1012.9 0.0
29/11:00am 17.8 13.0 8.9 56 4.6 W 24 39 13 21 1013.0 1013.1 0.0
29/10:30am 16.9 12.0 8.3 57 4.4 W 24 37 13 20 1013.4 1013.4 0.0
29/10:20am 16.5 10.8 8.2 58 4.2 W 28 46 15 25 1013.4 1013.4 0.0
29/10:00am 16.0 9.4 7.7 58 4.2 W 32 44 17 24 1013.6 1013.6 0.0
29/09:30am 15.6 10.7 8.6 63 3.6 W 24 33 13 18 1013.5 1013.5 0.0
29/09:07am 15.8 10.1 8.3 61 3.8 W 28 46 15 25 1013.3 1013.3 0.0
29/09:00am 16.2 9.9 8.9 62 3.8 W 32 46 17 25 1013.1 1013.2 0.0
29/08:30am 15.5 10.1 9.4 67 3.2 W 28 37 15 20 1012.9 1013.0 0.0
29/08:00am 14.8 8.9 9.0 68 3.0 W 30 43 16 23 1012.3 1012.4 0.0
29/07:30am 14.1 7.7 8.5 69 2.8 W 32 43 17 23 1012.0 1012.1 0.0
29/07:00am 13.3 7.9 8.2 71 2.5 W 26 35 14 19 1011.6 1011.7 0.0
29/06:30am 13.1 6.9 7.8 70 2.6 W 30 41 16 22 1011.2 1011.3 0.0
29/06:00am 12.6 7.0 7.3 70 2.6 W 26 33 14 18 1011.0 1011.1 0.0
29/05:30am 13.0 8.3 7.9 71 2.5 W 22 28 12 15 1011.1 1011.2 0.0
29/05:00am 12.4 7.3 7.7 73 2.3 W 24 35 13 19 1010.8 1010.9 0.0
29/04:30am 12.4 7.4 8.1 75 2.1 W 24 33 13 18 1010.3 1010.4 0.0
29/04:00am 12.3 8.3 8.2 76 2.0 W 19 24 10 13 1009.7 1009.8 0.0
29/03:30am 13.0 8.9 8.7 75 2.2 W 20 28 11 15 1009.5 1009.6 0.0
29/03:00am 12.9 9.8 10.3 84 1.4 WSW 17 22 9 12 1009.7 1009.8 0.0
29/02:30am 12.9 9.4 11.0 88 1.0 W 20 28 11 15 1009.4 1009.5 0.0
29/02:00am 13.3 9.1 11.0 86 1.2 W 24 33 13 18 1009.8 1009.9 0.0
29/01:30am 13.5 9.8 9.4 76 2.1 W 19 22 10 12 1008.3 1008.4 0.0
29/01:00am 14.4 8.9 9.2 71 2.7 SW 28 37 15 20 1007.8 1007.9 0.0
29/12:30am 15.4 9.2 9.3 67 3.1 WSW 32 44 17 24 1007.4 1007.5 0.0
29/12:00am 15.6 11.6 10.4 71 2.8 SW 22 32 12 17 1006.1 1006.1 0.0
 
Date/Time
EST
Temp
°C
App
Temp
°C
Dew
Point
Rel
Hum
%
Delta-T
°C
Wind Press
QNH
hPa
Press
MSL
hPa
Rain
since 9 am
mm
Dir
 
Spd
km/h
Gust
km/h
Spd
kts
Gust
kts
28/11:30pm 17.1 11.0 10.5 65 3.5 SW 33 43 18 23 1005.5 1005.5 0.0
28/11:28pm 17.4 11.5 10.5 64 3.7 SW 32 39 17 21 1005.5 1005.5 0.0
28/11:00pm 22.7 18.6 7.7 38 7.9 WNW 19 32 10 17 1004.4 1004.4 0.0
28/10:30pm 22.5 18.3 8.2 40 7.5 W 20 32 11 17 1004.6 1004.6 0.0
28/10:00pm 22.4 19.2 7.0 37 8.0 S 13 19 7 10 1004.9 1004.9 0.0
28/09:30pm 24.2 17.7 6.5 32 9.2 NNW 30 52 16 28 1004.2 1004.2 0.0
28/09:15pm 24.2 17.7 6.5 32 9.2 NNW 30 50 16 27 1003.9 1003.9 0.0
28/09:00pm 23.6 18.7 6.8 34 8.7 NNW 22 32 12 17 1004.1 1004.1 0.0
28/08:30pm 21.8 18.8 7.6 40 7.4 N 13 24 7 13 1004.4 1004.4 0.0
28/08:00pm 18.3 17.0 9.9 58 4.5 WSW 7 15 4 8 1004.4 1004.4 0.0
28/07:30pm 18.4 17.0 9.7 57 4.6 ENE 7 11 4 6 1004.9 1004.9 0.0
28/07:00pm 21.2 19.1 9.8 48 6.2 SSE 11 17 6 9 1005.0 1005.0 0.0
28/06:30pm 20.9 18.0 9.5 48 6.1 NNW 15 28 8 15 1004.8 1004.8 0.0
28/06:00pm 23.0 21.6 9.4 42 7.4 N 7 19 4 10 1004.6 1004.6 0.0
28/05:30pm 23.8 21.0 10.1 42 7.5 N 15 22 8 12 1005.0 1005.0 0.0
28/05:00pm 23.7 21.1 7.8 36 8.4 NNE 11 24 6 13 1005.3 1005.3 0.0
28/04:30pm 25.0 21.4 6.7 31 9.5 NW 15 22 8 12 1005.3 1005.3 0.0
28/04:00pm 25.3 19.1 6.0 29 10.0 NW 28 43 15 23 1005.4 1005.4 0.0
28/03:51pm 25.5 19.4 6.7 30 9.8 NW 28 46 15 25 1005.7 1005.7 0.0
28/03:30pm 26.7 19.9 7.7 30 10.2 NW 33 46 18 25 1006.0 1006.0 0.0
28/03:16pm 27.0 21.4 8.9 32 9.9 NW 28 46 15 25 1006.5 1006.5 0.0
28/03:00pm 26.9 20.6 9.7 34 9.6 NW 33 46 18 25 1006.7 1006.7 0.0
28/02:32pm 26.8 21.4 9.6 34 9.5 NW 28 48 15 26 1006.9 1006.9 0.0
28/02:30pm 26.8 21.9 8.3 31 10.0 NW 24 43 13 23 1006.9 1006.9 0.0
28/02:00pm 26.7 21.8 10.0 35 9.3 WNW 26 41 14 22 1007.1 1007.1 0.0
28/01:57pm 26.6 21.2 9.5 34 9.4 WNW 28 41 15 22 1007.2 1007.2 0.0
28/01:30pm 26.7 26.4 14.5 47 7.3 NNE 9 20 5 11 1007.6 1007.7 0.0
28/01:00pm 25.6 22.0 11.7 42 7.9 NNE 22 32 12 17 1007.4 1007.5 0.0
28/12:30pm 25.8 22.0 13.6 47 7.2 N 26 39 14 21 1008.5 1008.6 0.0
28/12:00pm 24.6 18.8 11.5 44 7.4 NNE 33 43 18 23 1009.1 1009.2 0.0
28/11:45am 25.0 19.0 10.1 39 8.2 NNE 32 52 17 28 1009.3 1009.4 0.0
28/11:30am 25.6 19.8 11.4 41 8.1 N 33 43 18 23 1010.2 1010.3 0.0
28/11:28am 25.5 19.3 10.1 38 8.5 N 33 41 18 22 1010.2 1010.3 0.0
28/11:00am 24.9 23.3 13.8 50 6.5 N 15 20 8 11 1011.3 1011.4 0.0
28/10:30am 24.2 24.5 14.6 55 5.7 NNE 6 11 3 6 1012.0 1012.1 0.0
28/10:00am 22.4 22.6 13.2 56 5.3 SSE 4 11 2 6 1012.6 1012.7 0.0

Other Formats:

Comma delimited format used in spreadsheet applications
http://www.bom.gov.au/fwo/IDV60801/IDV60801.94891.axf

JavaScript Object Notation format (JSON) in row-major order
http://www.bom.gov.au/fwo/IDV60801/IDV60801.94891.json